Time;durP1;ratioP1;P1;durP2;ratioP2;P2;SDS_P1;SDS_P2;PMS_P1;PMS_P2;Temp;Humidity;BMP_temperature;BMP_pressure;BME280_temperature;BME280_humidity;BME280_pressure;Samples;Min_cycle;Max_cycle;Signal;HPM_P1;HPM_P2
2023/01/31 00:01:17;;;;;;;12.77;3.63;;;4.40;99.90;;;;;;5007266;28;20064;-77
2023/01/31 00:03:44;;;;;;;5.35;2.20;;;4.40;99.90;;;;;;5007777;28;20042;-76
2023/01/31 00:06:17;;;;;;;10.20;2.72;;;4.40;99.90;;;;;;5007909;28;20069;-77
2023/01/31 00:08:43;;;;;;;11.90;2.83;;;4.40;99.90;;;;;;5007896;28;20069;-77
2023/01/31 00:11:09;;;;;;;5.05;3.08;;;4.40;99.90;;;;;;5007731;28;20053;-77
2023/01/31 00:13:35;;;;;;;11.98;2.95;;;4.30;99.90;;;;;;5007473;28;20398;-77
2023/01/31 00:16:02;;;;;;;19.92;3.17;;;4.30;99.90;;;;;;4999320;28;20060;-77
2023/01/31 00:18:28;;;;;;;8.55;3.67;;;4.30;99.90;;;;;;4988067;28;20046;-77
2023/01/31 00:20:53;;;;;;;10.65;4.18;;;4.30;99.90;;;;;;4987819;28;20578;-76
2023/01/31 00:23:19;;;;;;;10.93;4.28;;;4.30;99.90;;;;;;4997741;28;20037;-76
2023/01/31 00:25:45;;;;;;;16.77;2.70;;;4.30;99.90;;;;;;5007025;28;20416;-76
2023/01/31 00:28:10;;;;;;;11.95;2.92;;;4.30;99.90;;;;;;5007496;28;20466;-77
2023/01/31 00:30:36;;;;;;;4.00;2.17;;;4.30;99.90;;;;;;5006514;28;20081;-77
2023/01/31 00:33:01;;;;;;;7.55;2.33;;;4.30;99.90;;;;;;5006233;28;20040;-77
2023/01/31 00:35:27;;;;;;;4.95;2.47;;;4.30;99.90;;;;;;5007296;28;20482;-77
2023/01/31 00:37:53;;;;;;;5.43;2.50;;;4.30;99.90;;;;;;5007638;28;20081;-77
2023/01/31 00:40:18;;;;;;;8.73;2.45;;;4.30;99.90;;;;;;5007667;28;20042;-76
2023/01/31 00:42:44;;;;;;;13.50;2.85;;;4.20;99.90;;;;;;5006350;28;20461;-77
2023/01/31 00:45:10;;;;;;;6.10;2.75;;;4.20;99.90;;;;;;5006762;28;20568;-77
2023/01/31 00:47:36;;;;;;;14.73;4.28;;;4.20;99.90;;;;;;5007201;28;20521;-77
2023/01/31 00:50:02;;;;;;;4.25;2.30;;;4.20;99.90;;;;;;5007628;28;20038;-76
2023/01/31 00:52:28;;;;;;;9.55;2.95;;;4.10;99.90;;;;;;5006898;28;20454;-77
2023/01/31 00:54:53;;;;;;;10.90;3.20;;;4.10;99.90;;;;;;5007285;28;20042;-77
2023/01/31 00:57:19;;;;;;;6.47;3.15;;;4.10;99.90;;;;;;5006135;28;20037;-77
2023/01/31 00:59:44;;;;;;;10.50;3.80;;;4.00;99.90;;;;;;5006261;28;20410;-77
2023/01/31 01:02:10;;;;;;;21.33;4.40;;;4.00;99.90;;;;;;5007261;28;20053;-77
2023/01/31 01:04:36;;;;;;;4.13;2.20;;;4.00;99.90;;;;;;5007151;28;20394;-77
2023/01/31 01:07:01;;;;;;;15.18;2.88;;;3.90;99.90;;;;;;5007098;28;20046;-77
2023/01/31 01:09:27;;;;;;;22.52;5.20;;;3.90;99.90;;;;;;5006978;28;20562;-77
2023/01/31 01:11:52;;;;;;;12.23;5.32;;;3.90;99.90;;;;;;5010367;28;20046;-77
2023/01/31 01:14:18;;;;;;;9.65;3.47;;;3.90;99.90;;;;;;5011615;28;20422;-77
2023/01/31 01:16:43;;;;;;;5.55;4.15;;;3.90;99.90;;;;;;4996017;28;20050;-76
2023/01/31 01:19:16;;;;;;;11.93;4.50;;;3.90;99.90;;;;;;5010949;28;20054;-77
2023/01/31 01:21:43;;;;;;;9.18;3.25;;;3.90;99.90;;;;;;5010445;28;20061;-76
2023/01/31 01:24:13;;;;;;;5.30;2.20;;;3.90;99.90;;;;;;5011085;28;20058;-77
2023/01/31 01:26:39;;;;;;;7.03;4.47;;;3.90;99.90;;;;;;5009119;28;20050;-77
2023/01/31 01:29:05;;;;;;;15.45;3.45;;;3.90;99.90;;;;;;5010903;28;20042;-77
2023/01/31 01:31:30;;;;;;;14.40;5.00;;;3.90;99.90;;;;;;5009325;28;20049;-77
2023/01/31 01:34:01;;;;;;;6.72;2.33;;;3.90;99.90;;;;;;5010786;28;20042;-77
2023/01/31 01:36:27;;;;;;;8.80;3.90;;;3.90;99.90;;;;;;5009258;28;20513;-77
2023/01/31 01:38:54;;;;;;;13.48;4.10;;;3.90;99.90;;;;;;5010748;28;20045;-77
2023/01/31 01:41:20;;;;;;;23.40;4.20;;;4.00;99.90;;;;;;5011060;28;20052;-77
2023/01/31 01:43:50;;;;;;;23.52;3.88;;;4.00;99.90;;;;;;5011220;28;20048;-76
2023/01/31 01:46:32;;;;;;;13.10;3.90;;;4.10;99.90;;;;;;5009949;28;20046;-77
2023/01/31 01:49:25;;;;;;;7.75;3.65;;;4.00;99.90;;;;;;5010597;28;20056;-77
2023/01/31 01:51:56;;;;;;;14.23;3.45;;;4.10;99.90;;;;;;5010535;28;20117;-78
2023/01/31 01:54:27;;;;;;;23.80;4.18;;;4.10;99.90;;;;;;5010346;28;20056;-77
2023/01/31 01:56:59;;;;;;;6.53;3.55;;;4.10;99.90;;;;;;5010473;28;20121;-77
2023/01/31 01:59:33;;;;;;;13.32;3.63;;;4.20;99.90;;;;;;5008099;28;20045;-78
2023/01/31 02:01:59;;;;;;;11.05;4.00;;;4.20;99.90;;;;;;5010610;28;20052;-77
2023/01/31 02:04:31;;;;;;;9.30;3.85;;;4.20;99.90;;;;;;5010284;28;20057;-77
2023/01/31 02:06:59;;;;;;;13.07;2.60;;;4.20;99.90;;;;;;5010056;28;20556;-77
2023/01/31 02:09:33;;;;;;;13.88;4.53;;;4.20;99.90;;;;;;5010200;28;20042;-77
2023/01/31 02:11:59;;;;;;;9.27;3.53;;;4.30;99.90;;;;;;5008687;28;20065;-77
2023/01/31 02:14:26;;;;;;;4.45;2.58;;;4.30;99.90;;;;;;5008743;28;20508;-77
2023/01/31 02:16:51;;;;;;;11.15;3.13;;;4.30;99.90;;;;;;5008614;28;20096;-78
2023/01/31 02:19:32;;;;;;;8.98;4.03;;;4.30;99.90;;;;;;5009994;28;20053;-77
2023/01/31 02:22:20;;;;;;;12.45;2.65;;;4.30;99.90;;;;;;5008638;28;20104;-77
2023/01/31 02:25:24;;;;;;;5.35;2.33;;;4.30;99.90;;;;;;5001925;28;20137;-77
2023/01/31 02:28:15;;;;;;;9.73;2.97;;;4.30;99.90;;;;;;5009155;28;20081;-77
2023/01/31 02:30:47;;;;;;;69.20;8.32;;;4.30;99.90;;;;;;4996438;28;20058;-77
2023/01/31 02:33:31;;;;;;;5.85;2.10;;;4.30;99.90;;;;;;5009725;28;20049;-77
2023/01/31 02:36:35;;;;;;;10.32;3.13;;;4.30;99.90;;;;;;5009377;28;21553;-77
2023/01/31 02:39:32;;;;;;;22.40;4.50;;;4.30;99.90;;;;;;5008337;28;20045;-77
2023/01/31 02:42:41;;;;;;;3.35;2.40;;;4.20;99.90;;;;;;4991802;28;20054;-77
2023/01/31 02:45:15;;;;;;;10.52;3.05;;;4.20;99.90;;;;;;4987371;28;20481;-77
2023/01/31 02:47:56;;;;;;;10.10;3.30;;;4.20;99.90;;;;;;4993314;28;20301;-77
2023/01/31 02:50:39;;;;;;;9.27;2.95;;;4.20;99.90;;;;;;5009250;28;20108;-77
2023/01/31 02:53:11;;;;;;;7.35;3.35;;;4.20;99.90;;;;;;4991839;28;20049;-76
2023/01/31 02:58:32;;;;;;;11.13;4.05;;;4.20;99.90;;;;;;5008942;28;20042;-77
2023/01/31 03:01:02;;;;;;;4.93;2.30;;;4.20;99.90;;;;;;5006896;28;20549;-77
2023/01/31 03:03:32;;;;;;;21.70;3.63;;;4.30;99.90;;;;;;5008675;28;20042;-77
2023/01/31 03:06:21;;;;;;;19.80;4.43;;;4.20;99.90;;;;;;5009047;28;20045;-76
2023/01/31 03:08:55;;;;;;;19.92;3.95;;;4.30;99.90;;;;;;5008299;28;20049;-77
2023/01/31 03:11:28;;;;;;;9.27;3.03;;;4.30;99.90;;;;;;5007647;28;20057;-78
2023/01/31 03:14:04;;;;;;;6.60;2.78;;;4.30;99.90;;;;;;5007483;28;20149;-77
2023/01/31 03:19:37;;;;;;;9.20;3.88;;;4.40;99.90;;;;;;5007159;28;20077;-77
2023/01/31 03:22:16;;;;;;;17.23;5.03;;;4.40;99.90;;;;;;5008474;28;20521;-77
2023/01/31 03:24:46;;;;;;;20.27;3.55;;;4.40;99.90;;;;;;5008406;28;20042;-76
2023/01/31 03:27:13;;;;;;;20.13;3.08;;;4.40;99.90;;;;;;5008706;28;20096;-77
2023/01/31 03:29:40;;;;;;;3.50;2.67;;;4.40;99.90;;;;;;5006596;28;20061;-77
2023/01/31 03:32:23;;;;;;;15.65;5.18;;;4.50;99.90;;;;;;5008626;28;20046;-77
2023/01/31 03:34:50;;;;;;;12.40;4.60;;;4.50;99.90;;;;;;5007268;28;20069;-77
2023/01/31 03:37:31;;;;;;;14.98;4.78;;;4.50;99.90;;;;;;5008748;28;20050;-77
2023/01/31 03:40:02;;;;;;;14.70;4.10;;;4.50;99.90;;;;;;5008322;28;20057;-77
2023/01/31 03:42:44;;;;;;;9.30;3.80;;;4.60;99.90;;;;;;5008365;28;20050;-77
2023/01/31 03:45:25;;;;;;;6.50;3.70;;;4.60;99.90;;;;;;5007577;28;20037;-77
2023/01/31 03:47:54;;;;;;;11.38;3.10;;;4.60;99.90;;;;;;5007042;28;20052;-78
2023/01/31 03:50:25;;;;;;;17.50;5.00;;;4.70;99.90;;;;;;5007177;28;20533;-77
2023/01/31 03:53:06;;;;;;;21.98;5.40;;;4.70;99.90;;;;;;5007580;28;20052;-77
2023/01/31 03:55:42;;;;;;;16.65;5.25;;;4.70;99.90;;;;;;5006966;28;20091;-77
2023/01/31 03:58:12;;;;;;;11.52;4.68;;;4.80;99.90;;;;;;5006817;28;20053;-77
2023/01/31 04:00:41;;;;;;;17.17;5.55;;;4.80;99.90;;;;;;5006689;28;20061;-77
2023/01/31 04:03:24;;;;;;;6.55;3.58;;;4.80;99.90;;;;;;5008298;28;20037;-77
2023/01/31 04:05:50;;;;;;;16.55;5.25;;;4.80;99.90;;;;;;5008659;28;20112;-76
2023/01/31 04:08:16;;;;;;;21.90;4.20;;;4.90;99.90;;;;;;5007215;28;20434;-77
2023/01/31 04:10:42;;;;;;;13.85;5.45;;;4.90;99.90;;;;;;5007395;28;20544;-77
2023/01/31 04:13:07;;;;;;;22.95;6.07;;;4.90;99.90;;;;;;5007771;28;20085;-77
2023/01/31 04:15:33;;;;;;;17.15;4.75;;;4.90;99.90;;;;;;5006756;28;20030;-77
2023/01/31 04:17:58;;;;;;;21.42;6.82;;;5.00;99.90;;;;;;5007914;28;20049;-77
2023/01/31 04:20:24;;;;;;;11.15;3.78;;;5.00;99.90;;;;;;5007283;28;20045;-77
2023/01/31 04:22:50;;;;;;;14.40;6.82;;;5.00;99.90;;;;;;5008198;28;20046;-77
2023/01/31 04:25:16;;;;;;;15.32;4.63;;;5.00;99.90;;;;;;5007410;28;20132;-76
2023/01/31 04:27:42;;;;;;;22.42;6.03;;;5.10;99.90;;;;;;5007399;28;20785;-77
2023/01/31 04:30:08;;;;;;;10.63;5.47;;;5.10;99.90;;;;;;5005792;28;20034;-77
2023/01/31 04:32:33;;;;;;;19.52;6.13;;;5.20;99.90;;;;;;5007077;28;20670;-77
2023/01/31 04:34:59;;;;;;;28.23;6.35;;;5.20;99.90;;;;;;5007469;28;20096;-77
2023/01/31 04:37:24;;;;;;;11.55;6.38;;;5.20;99.90;;;;;;5005992;28;20516;-77
2023/01/31 04:39:50;;;;;;;16.50;5.38;;;5.20;99.90;;;;;;5007898;28;20402;-76
2023/01/31 04:42:16;;;;;;;21.85;6.63;;;5.20;99.90;;;;;;5006390;28;20049;-76
2023/01/31 04:44:41;;;;;;;24.25;5.90;;;5.30;99.90;;;;;;5005872;28;20112;-77
2023/01/31 04:47:07;;;;;;;16.77;6.55;;;5.30;99.90;;;;;;5006163;28;20034;-76
2023/01/31 04:49:32;;;;;;;19.90;8.43;;;5.20;99.90;;;;;;5007053;28;20040;-76
2023/01/31 04:51:58;;;;;;;9.32;5.25;;;5.20;99.90;;;;;;5007355;28;20050;-76
2023/01/31 04:54:23;;;;;;;12.70;4.40;;;5.20;99.90;;;;;;5007112;28;20038;-76
2023/01/31 04:56:49;;;;;;;11.98;4.40;;;5.20;99.90;;;;;;5007738;28;20053;-76
2023/01/31 04:59:15;;;;;;;16.60;5.85;;;5.20;99.90;;;;;;5006459;28;20046;-76
2023/01/31 05:01:41;;;;;;;14.48;6.88;;;5.20;99.90;;;;;;5006815;28;20096;-76
2023/01/31 05:04:07;;;;;;;17.95;6.60;;;5.30;99.90;;;;;;5006074;28;20050;-76
2023/01/31 05:06:32;;;;;;;12.68;5.05;;;5.20;99.90;;;;;;5006842;28;20117;-77
2023/01/31 05:09:00;;;;;;;13.05;4.95;;;5.20;99.90;;;;;;5007246;28;20496;-76
2023/01/31 05:11:28;;;;;;;13.93;5.53;;;5.30;99.90;;;;;;5006589;28;20383;-76
2023/01/31 05:13:54;;;;;;;10.65;5.40;;;5.30;99.90;;;;;;5006341;28;20042;-77
2023/01/31 05:16:20;;;;;;;18.45;4.43;;;5.30;99.90;;;;;;5007547;28;20053;-76
2023/01/31 05:18:45;;;;;;;17.52;5.95;;;5.30;99.90;;;;;;5005568;28;20104;-76
2023/01/31 05:21:11;;;;;;;16.00;5.90;;;5.30;99.90;;;;;;5006908;28;20056;-76
2023/01/31 05:23:37;;;;;;;14.32;5.93;;;5.30;99.90;;;;;;5005270;28;20398;-76
2023/01/31 05:26:02;;;;;;;18.92;4.80;;;5.30;99.90;;;;;;5006838;28;20096;-76
2023/01/31 05:28:28;;;;;;;17.83;4.85;;;5.30;99.90;;;;;;5006529;28;20070;-76
2023/01/31 05:31:00;;;;;;;25.08;5.13;;;5.40;99.90;;;;;;5004738;28;20045;-76
2023/01/31 05:33:26;;;;;;;9.27;4.18;;;5.40;99.90;;;;;;5006626;28;20077;-77
2023/01/31 05:35:52;;;;;;;19.73;6.13;;;5.40;99.90;;;;;;5005663;28;20033;-77
2023/01/31 05:38:18;;;;;;;18.67;5.60;;;5.50;99.90;;;;;;5007119;28;20447;-76
2023/01/31 05:40:43;;;;;;;12.57;5.15;;;5.40;99.90;;;;;;5005452;28;20390;-76
2023/01/31 05:43:09;;;;;;;30.63;5.55;;;5.50;99.90;;;;;;5006860;28;20125;-76
2023/01/31 05:45:34;;;;;;;16.92;5.93;;;5.50;99.90;;;;;;4997288;28;20034;-77
2023/01/31 05:48:00;;;;;;;11.80;5.45;;;5.50;99.90;;;;;;5004091;28;20061;-79
2023/01/31 05:50:29;;;;;;;15.82;5.97;;;5.50;99.90;;;;;;5006527;28;20502;-77
2023/01/31 05:52:58;;;;;;;26.23;6.30;;;5.50;99.90;;;;;;5005426;28;20092;-77
2023/01/31 05:55:24;;;;;;;14.73;4.88;;;5.60;99.90;;;;;;5021295;28;20045;-77
2023/01/31 05:57:51;;;;;;;10.65;3.90;;;5.60;99.90;;;;;;5010197;28;20056;-77
2023/01/31 06:00:17;;;;;;;23.60;5.93;;;5.60;99.90;;;;;;5005510;28;20129;-77
2023/01/31 06:02:43;;;;;;;18.55;5.32;;;5.60;99.90;;;;;;4990721;28;20121;-77
2023/01/31 06:05:09;;;;;;;10.13;4.15;;;5.60;99.90;;;;;;4990496;28;20042;-77
2023/01/31 06:07:35;;;;;;;10.85;4.30;;;5.60;99.90;;;;;;4991279;28;20050;-77
2023/01/31 06:10:02;;;;;;;10.65;3.10;;;5.60;99.90;;;;;;5010714;28;20037;-77
2023/01/31 06:12:27;;;;;;;20.77;6.40;;;5.70;99.90;;;;;;5008790;28;20084;-77
2023/01/31 06:14:53;;;;;;;8.98;3.83;;;5.70;99.90;;;;;;5009144;28;20057;-78
2023/01/31 06:17:22;;;;;;;8.25;4.22;;;5.70;99.90;;;;;;5002843;28;20049;-77
2023/01/31 06:19:48;;;;;;;12.73;3.85;;;5.70;99.90;;;;;;5004536;28;20540;-77
2023/01/31 06:22:14;;;;;;;5.93;4.03;;;5.70;99.90;;;;;;5008538;28;20050;-77
2023/01/31 06:24:39;;;;;;;19.00;5.72;;;5.70;99.90;;;;;;5008963;28;20442;-78
2023/01/31 06:27:05;;;;;;;11.18;3.58;;;5.80;99.90;;;;;;5009757;28;20045;-78
2023/01/31 06:29:30;;;;;;;10.35;3.53;;;5.80;99.90;;;;;;5008054;28;20494;-78
2023/01/31 06:31:56;;;;;;;18.23;4.57;;;5.80;99.90;;;;;;5009826;28;20046;-78
2023/01/31 06:34:22;;;;;;;10.20;4.18;;;5.80;99.90;;;;;;5009430;28;20499;-78
2023/01/31 06:36:47;;;;;;;18.05;4.80;;;5.80;99.90;;;;;;5008924;28;20044;-78
2023/01/31 06:39:13;;;;;;;18.10;3.83;;;5.80;99.90;;;;;;5008425;28;20121;-77
2023/01/31 06:41:39;;;;;;;11.75;4.15;;;5.80;99.90;;;;;;5007864;28;20050;-77
2023/01/31 06:44:05;;;;;;;17.13;5.80;;;5.80;99.90;;;;;;5007128;28;20406;-80
2023/01/31 06:46:30;;;;;;;8.82;4.68;;;5.80;99.90;;;;;;5008740;28;20044;-80
2023/01/31 06:48:56;;;;;;;14.57;3.20;;;5.80;99.90;;;;;;4997087;28;20046;-78
2023/01/31 06:51:22;;;;;;;12.02;4.35;;;5.80;99.90;;;;;;5007049;28;20399;-78
2023/01/31 06:53:47;;;;;;;9.45;3.25;;;5.70;99.90;;;;;;5007744;28;20117;-77
2023/01/31 06:56:13;;;;;;;26.40;3.83;;;5.70;99.90;;;;;;5004133;28;20410;-78
2023/01/31 06:58:39;;;;;;;16.48;4.18;;;5.70;99.90;;;;;;5006379;28;20048;-77
2023/01/31 07:01:11;;;;;;;9.23;3.10;;;5.70;99.90;;;;;;5001566;28;20050;-79
2023/01/31 07:03:37;;;;;;;11.02;3.33;;;5.70;99.90;;;;;;5001175;28;20496;-77
2023/01/31 07:06:04;;;;;;;9.60;2.53;;;5.70;99.90;;;;;;5008774;28;20042;-77
2023/01/31 07:08:30;;;;;;;29.95;3.67;;;5.70;99.90;;;;;;5008468;28;20129;-77
2023/01/31 07:10:56;;;;;;;7.85;2.10;;;5.70;99.90;;;;;;5009630;28;20034;-78
2023/01/31 07:13:22;;;;;;;11.15;2.63;;;5.70;99.90;;;;;;5008286;28;20490;-78
2023/01/31 07:15:48;;;;;;;10.82;3.25;;;5.70;99.90;;;;;;5006522;28;20104;-77
2023/01/31 07:18:14;;;;;;;5.32;2.70;;;5.70;99.90;;;;;;5007977;28;20125;-77
2023/01/31 07:20:41;;;;;;;8.32;2.45;;;5.70;99.90;;;;;;5003271;28;20054;-77
2023/01/31 07:23:07;;;;;;;6.57;4.35;;;5.70;99.90;;;;;;5003252;28;20485;-77
2023/01/31 07:25:33;;;;;;;38.00;4.60;;;5.70;99.90;;;;;;5009021;28;20041;-77
2023/01/31 07:28:00;;;;;;;6.07;2.30;;;5.70;99.90;;;;;;5007958;28;20115;-77
2023/01/31 07:30:26;;;;;;;13.02;3.42;;;5.70;99.90;;;;;;5007977;28;20038;-77
2023/01/31 07:32:51;;;;;;;15.15;3.30;;;5.80;99.90;;;;;;5007910;28;20044;-77
2023/01/31 07:35:17;;;;;;;7.53;3.40;;;5.70;99.90;;;;;;5008335;28;20458;-77
2023/01/31 07:37:44;;;;;;;5.32;3.35;;;5.70;99.90;;;;;;5007770;28;20111;-77
2023/01/31 07:40:11;;;;;;;14.65;3.55;;;5.80;99.90;;;;;;5008335;28;20038;-77
2023/01/31 07:42:38;;;;;;;10.30;3.67;;;5.80;99.90;;;;;;5008421;28;20045;-77
2023/01/31 07:45:04;;;;;;;14.23;4.30;;;5.80;99.90;;;;;;5007859;28;20046;-77
2023/01/31 07:47:30;;;;;;;7.45;4.20;;;5.80;99.90;;;;;;5006193;28;20521;-77
2023/01/31 07:49:55;;;;;;;12.27;4.22;;;5.80;99.90;;;;;;5008563;28;20049;-77
2023/01/31 07:52:21;;;;;;;8.38;3.20;;;5.80;99.90;;;;;;5008412;28;20050;-79
2023/01/31 07:54:46;;;;;;;7.35;3.00;;;5.80;99.90;;;;;;5009299;28;20470;-77
2023/01/31 07:57:12;;;;;;;14.60;2.78;;;5.90;99.90;;;;;;5008662;28;20095;-77
2023/01/31 07:59:38;;;;;;;7.82;3.22;;;5.90;99.90;;;;;;5006431;28;20045;-77
2023/01/31 08:04:48;;;;;;;6.63;3.70;;;5.90;99.90;;;;;;5009155;28;20097;-77
2023/01/31 08:07:13;;;;;;;16.65;3.83;;;5.90;99.90;;;;;;5008037;28;20089;-76
2023/01/31 08:09:39;;;;;;;15.95;5.03;;;5.90;99.90;;;;;;5006099;28;20049;-77
2023/01/31 08:12:06;;;;;;;21.27;4.97;;;6.00;99.90;;;;;;5007040;28;20038;-76
2023/01/31 08:14:32;;;;;;;5.50;3.33;;;6.00;99.90;;;;;;5006255;28;20073;-77
2023/01/31 08:16:58;;;;;;;23.95;4.78;;;6.00;99.90;;;;;;4991866;28;20077;-77
2023/01/31 08:19:23;;;;;;;10.30;4.43;;;6.00;99.90;;;;;;4987207;28;20058;-78
2023/01/31 08:21:49;;;;;;;9.15;5.13;;;6.00;99.90;;;;;;5005602;28;20410;-78
2023/01/31 08:24:15;;;;;;;8.73;3.85;;;6.00;99.90;;;;;;5007280;28;20037;-77
2023/01/31 08:26:43;;;;;;;7.25;3.92;;;6.00;99.90;;;;;;5006739;28;20429;-78
2023/01/31 08:29:09;;;;;;;22.60;4.22;;;6.00;99.90;;;;;;5005945;28;20173;-77
2023/01/31 08:31:34;;;;;;;11.90;3.47;;;6.00;99.90;;;;;;5006859;28;20144;-77
2023/01/31 08:34:00;;;;;;;17.92;5.55;;;6.10;99.90;;;;;;5007620;28;20049;-77
2023/01/31 08:36:30;;;;;;;15.18;5.25;;;6.10;99.90;;;;;;5006874;28;20510;-77
2023/01/31 08:38:56;;;;;;;11.50;4.15;;;6.10;99.90;;;;;;5006952;28;20057;-77
2023/01/31 08:41:23;;;;;;;17.75;5.30;;;6.10;99.90;;;;;;5005205;28;20056;-78
2023/01/31 08:43:49;;;;;;;15.40;4.82;;;6.20;99.90;;;;;;5006144;28;20140;-77
2023/01/31 08:46:15;;;;;;;23.90;6.53;;;6.20;99.90;;;;;;5006882;28;20116;-77
2023/01/31 08:48:41;;;;;;;16.88;3.88;;;6.20;99.90;;;;;;5005179;28;20111;-77
2023/01/31 08:51:11;;;;;;;5.47;2.92;;;6.20;99.90;;;;;;5006890;28;20506;-77
2023/01/31 08:53:43;;;;;;;12.60;4.22;;;6.20;99.90;;;;;;5006272;28;20099;-77
2023/01/31 08:56:09;;;;;;;8.77;5.10;;;6.20;99.90;;;;;;5003627;28;20077;-77
2023/01/31 08:58:37;;;;;;;9.48;4.45;;;6.20;99.90;;;;;;5002026;28;20149;-77
2023/01/31 09:01:04;;;;;;;28.42;4.88;;;6.20;99.90;;;;;;5003569;28;20053;-77
2023/01/31 09:03:30;;;;;;;11.00;5.57;;;6.30;99.90;;;;;;4987037;28;20077;-77
2023/01/31 09:05:59;;;;;;;23.73;5.40;;;6.30;99.90;;;;;;4986033;28;20046;-77
2023/01/31 09:08:25;;;;;;;15.18;4.70;;;6.30;99.90;;;;;;4988335;28;20045;-77
2023/01/31 09:10:52;;;;;;;14.02;5.65;;;6.30;99.90;;;;;;4986967;28;20038;-79
2023/01/31 09:13:17;;;;;;;15.07;4.97;;;6.30;99.90;;;;;;4990439;28;20041;-77
2023/01/31 09:15:43;;;;;;;14.40;5.50;;;6.40;99.90;;;;;;5006478;28;20104;-77
2023/01/31 09:18:08;;;;;;;22.33;4.40;;;6.40;99.90;;;;;;5006654;28;20119;-77
2023/01/31 09:20:34;;;;;;;13.02;4.35;;;6.50;99.90;;;;;;5001145;28;20077;-77
2023/01/31 09:22:59;;;;;;;13.57;6.15;;;6.40;99.90;;;;;;4993140;28;20415;-77
2023/01/31 09:25:25;;;;;;;6.80;3.03;;;6.50;99.90;;;;;;4986685;28;20077;-78
2023/01/31 09:27:54;;;;;;;13.10;4.70;;;6.50;99.90;;;;;;5006437;28;20505;-79
2023/01/31 09:30:20;;;;;;;16.48;6.60;;;6.50;99.90;;;;;;5006354;28;20042;-77
2023/01/31 09:32:46;;;;;;;15.63;6.05;;;6.50;99.90;;;;;;4984980;28;20194;-77
2023/01/31 09:35:12;;;;;;;7.80;3.50;;;6.50;99.90;;;;;;5010420;28;20129;-77
2023/01/31 09:37:38;;;;;;;14.35;4.35;;;6.50;99.90;;;;;;5002555;28;20035;-77
2023/01/31 09:40:05;;;;;;;11.65;3.28;;;6.50;99.90;;;;;;4991680;28;20061;-78
2023/01/31 09:42:35;;;;;;;16.17;3.97;;;6.50;99.90;;;;;;5000593;28;20506;-77
2023/01/31 09:45:28;;;;;;;11.50;4.10;;;6.60;99.90;;;;;;4997035;28;20049;-77
2023/01/31 09:47:56;;;;;;;27.13;4.97;;;6.50;99.90;;;;;;4990719;28;20054;-77
2023/01/31 09:50:36;;;;;;;9.57;3.55;;;6.60;99.90;;;;;;5002336;28;20065;-78
2023/01/31 09:53:02;;;;;;;6.70;3.88;;;6.60;99.90;;;;;;5005462;28;20474;-77
2023/01/31 09:55:40;;;;;;;10.98;4.63;;;6.60;99.90;;;;;;4990471;28;20064;-78
2023/01/31 09:58:19;;;;;;;9.65;3.58;;;6.60;99.90;;;;;;4989540;28;20042;-78
2023/01/31 10:01:08;;;;;;;14.98;5.40;;;6.60;99.90;;;;;;4994084;28;20053;-79
2023/01/31 10:04:15;;;;;;;19.77;7.13;;;6.60;99.90;;;;;;4990165;28;20051;-77
2023/01/31 10:06:59;;;;;;;17.85;5.13;;;6.60;99.90;;;;;;4951845;28;20623;-77
2023/01/31 10:09:52;;;;;;;11.80;5.43;;;6.60;99.90;;;;;;4995309;28;20046;-78
2023/01/31 10:12:37;;;;;;;16.05;4.38;;;6.60;99.90;;;;;;4984032;28;20108;-77
2023/01/31 10:15:15;;;;;;;18.48;5.00;;;6.60;99.90;;;;;;4989207;28;20055;-78
2023/01/31 10:17:54;;;;;;;15.20;3.83;;;6.60;99.90;;;;;;4989727;28;20132;-77
2023/01/31 10:20:19;;;;;;;10.95;4.80;;;6.60;99.90;;;;;;4995020;28;20162;-77
2023/01/31 10:23:17;;;;;;;18.67;5.55;;;6.60;99.90;;;;;;4996812;28;20089;-77
2023/01/31 10:25:54;;;;;;;16.35;3.97;;;6.70;99.90;;;;;;4992587;28;20081;-77
2023/01/31 10:28:55;;;;;;;16.45;4.60;;;6.70;99.90;;;;;;4989471;28;20046;-78
2023/01/31 10:31:31;;;;;;;16.50;5.03;;;6.70;99.90;;;;;;4937144;28;20046;-79
2023/01/31 10:34:12;;;;;;;13.32;3.53;;;6.70;99.90;;;;;;4986044;28;20056;-77
2023/01/31 10:37:05;;;;;;;17.35;4.75;;;6.80;99.90;;;;;;5006471;28;20124;-77
2023/01/31 10:39:44;;;;;;;20.58;4.78;;;6.70;99.90;;;;;;5006847;28;20041;-77
2023/01/31 10:42:32;;;;;;;13.57;4.20;;;6.80;99.90;;;;;;5007393;28;20478;-79
2023/01/31 10:45:09;;;;;;;11.35;4.60;;;6.80;99.90;;;;;;4989498;28;20184;-77
2023/01/31 10:47:50;;;;;;;11.25;5.25;;;6.80;99.90;;;;;;5008134;28;20391;-78
2023/01/31 10:50:21;;;;;;;8.33;3.93;;;6.80;99.90;;;;;;4990843;28;20042;-78
2023/01/31 10:53:22;;;;;;;8.65;3.05;;;6.80;99.90;;;;;;5008980;28;20056;-78
2023/01/31 10:55:55;;;;;;;10.13;4.60;;;6.90;99.90;;;;;;4956001;28;20584;-78
2023/01/31 10:58:22;;;;;;;12.75;4.30;;;6.90;99.90;;;;;;5008850;28;20046;-79
2023/01/31 11:00:48;;;;;;;13.10;4.68;;;6.90;99.90;;;;;;5009785;28;20176;-78
2023/01/31 11:03:15;;;;;;;24.23;5.35;;;6.90;99.90;;;;;;5004578;28;20141;-78
2023/01/31 11:05:52;;;;;;;16.17;4.22;;;7.00;99.90;;;;;;5008600;28;20547;-78
2023/01/31 11:08:33;;;;;;;16.20;4.75;;;7.00;99.90;;;;;;5009197;28;20489;-78
2023/01/31 11:11:23;;;;;;;10.90;4.80;;;7.00;99.90;;;;;;5007344;28;20049;-78
2023/01/31 11:14:06;;;;;;;8.40;3.00;;;7.10;99.90;;;;;;4993624;28;20053;-78
2023/01/31 11:16:34;;;;;;;7.13;4.93;;;7.10;99.90;;;;;;5005248;28;20085;-78
2023/01/31 11:19:03;;;;;;;9.45;3.67;;;7.10;99.90;;;;;;5008183;28;20029;-78
2023/01/31 11:21:31;;;;;;;13.98;4.40;;;7.20;99.90;;;;;;5000068;28;20054;-76
2023/01/31 11:24:16;;;;;;;20.38;5.22;;;7.20;99.90;;;;;;5006442;28;20057;-76
2023/01/31 11:26:51;;;;;;;12.50;5.20;;;7.20;99.90;;;;;;5008128;28;20052;-76
2023/01/31 11:29:22;;;;;;;6.43;3.45;;;7.30;99.90;;;;;;5006134;28;20034;-76
2023/01/31 11:31:48;;;;;;;4.97;3.30;;;7.30;99.90;;;;;;4999465;28;20042;-82
2023/01/31 11:34:22;;;;;;;6.43;3.17;;;7.40;99.90;;;;;;5006738;28;20317;-79
2023/01/31 11:36:48;;;;;;;9.80;3.15;;;7.40;99.90;;;;;;5000833;28;20064;-82
2023/01/31 11:39:33;;;;;;;8.77;3.50;;;7.50;99.90;;;;;;5000542;28;20502;-80
2023/01/31 11:42:11;;;;;;;14.52;3.95;;;7.50;99.90;;;;;;5004226;28;20483;-78
2023/01/31 11:45:03;;;;;;;11.15;3.80;;;7.50;99.90;;;;;;5005531;28;20117;-78
2023/01/31 11:47:43;;;;;;;9.15;3.88;;;7.50;99.90;;;;;;4996671;28;20038;-79
2023/01/31 11:50:19;;;;;;;10.15;5.15;;;7.60;99.90;;;;;;5006928;28;20042;-79
2023/01/31 11:52:45;;;;;;;8.75;3.90;;;7.60;99.90;;;;;;5007000;28;20056;-81
2023/01/31 11:55:17;;;;;;;10.45;3.47;;;7.70;99.90;;;;;;5007104;28;20038;-80
2023/01/31 11:57:42;;;;;;;6.15;4.22;;;7.70;99.90;;;;;;5005566;28;20502;-80
2023/01/31 12:00:24;;;;;;;8.52;3.70;;;7.70;99.90;;;;;;5005378;28;20038;-81
2023/01/31 12:03:07;;;;;;;10.32;4.22;;;7.70;99.90;;;;;;5003838;28;20038;-79
2023/01/31 12:05:41;;;;;;;22.27;5.43;;;7.70;99.90;;;;;;5000877;28;20049;-82
2023/01/31 12:08:30;;;;;;;4.60;2.30;;;7.80;99.90;;;;;;4989375;28;20373;-80
2023/01/31 12:10:56;;;;;;;7.95;3.50;;;7.80;99.90;;;;;;4987112;28;20403;-80
2023/01/31 12:13:23;;;;;;;13.55;5.38;;;7.80;99.90;;;;;;5004156;28;20038;-81
2023/01/31 12:15:57;;;;;;;4.32;2.40;;;7.80;99.90;;;;;;5004630;28;20041;-80
2023/01/31 12:18:38;;;;;;;8.82;3.00;;;7.90;99.90;;;;;;5006890;28;20050;-80
2023/01/31 12:21:14;;;;;;;15.52;4.38;;;8.00;99.90;;;;;;5006625;28;20533;-81
2023/01/31 12:23:48;;;;;;;4.80;3.58;;;8.00;99.90;;;;;;5002463;28;20131;-78
2023/01/31 12:26:21;;;;;;;16.65;3.17;;;8.00;99.90;;;;;;5005871;28;20219;-79
2023/01/31 12:28:52;;;;;;;;;;;8.00;99.90;;;;;;4996312;28;20046;-79
2023/01/31 12:31:32;;;;;;;10.75;3.55;;;8.10;99.90;;;;;;4987382;28;20366;-79
2023/01/31 12:34:22;;;;;;;7.38;3.53;;;8.10;99.90;;;;;;4998182;28;20069;-79
2023/01/31 12:37:18;;;;;;;7.78;3.70;;;8.10;99.90;;;;;;4987267;28;20054;-79
2023/01/31 12:40:09;;;;;;;5.70;2.95;;;8.10;99.90;;;;;;4999930;28;20121;-78
2023/01/31 12:42:55;;;;;;;9.02;3.70;;;8.20;99.90;;;;;;4998165;28;20088;-79
2023/01/31 12:45:37;;;;;;;8.35;3.72;;;8.30;99.90;;;;;;4986811;28;20049;-79
2023/01/31 12:48:33;;;;;;;5.53;2.97;;;8.30;99.90;;;;;;5001296;28;20046;-79
2023/01/31 12:51:13;;;;;;;13.20;3.63;;;8.30;99.90;;;;;;5004813;28;20050;-79
2023/01/31 12:53:52;;;;;;;11.25;3.90;;;8.20;99.90;;;;;;4988551;28;20625;-79
2023/01/31 12:56:24;;;;;;;11.13;4.43;;;8.30;99.90;;;;;;4991931;28;20054;-79
2023/01/31 12:59:02;;;;;;;14.43;3.42;;;8.20;99.90;;;;;;5002212;28;20161;-79
2023/01/31 13:01:35;;;;;;;24.92;3.10;;;8.30;99.90;;;;;;4996054;28;20054;-79
2023/01/31 13:04:13;;;;;;;4.90;2.45;;;8.20;99.90;;;;;;5006476;28;20046;-79
2023/01/31 13:06:52;;;;;;;14.65;3.90;;;8.30;99.90;;;;;;5013097;28;20546;-79
2023/01/31 13:09:25;;;;;;;12.98;4.80;;;8.20;99.90;;;;;;4990511;28;20042;-79
2023/01/31 13:11:54;;;;;;;8.75;3.42;;;8.30;99.90;;;;;;4997497;28;20046;-79
2023/01/31 13:14:26;;;;;;;13.55;4.85;;;8.30;99.90;;;;;;4994852;28;20046;-79
2023/01/31 13:16:54;;;;;;;;;;;8.30;99.90;;;;;;5001572;28;20498;-79
2023/01/31 13:19:40;;;;;;;15.50;3.45;;;8.30;99.90;;;;;;5006544;28;20270;-79